Time;durP1;ratioP1;P1;durP2;ratioP2;P2;SDS_P1;SDS_P2;PMS_P1;PMS_P2;Temp;Humidity;BMP_temperature;BMP_pressure;BME280_temperature;BME280_humidity;BME280_pressure;Samples;Min_cycle;Max_cycle;Signal;HPM_P1;HPM_P2
2022/09/11 00:00:51;;;;;;;8.98;3.90;;;16.90;99.90;;;;;;5090689;28;20028;-90
2022/09/11 00:03:23;;;;;;;7.90;4.07;;;16.80;99.90;;;;;;5089597;28;20024;-90
2022/09/11 00:05:49;;;;;;;9.40;3.85;;;;;;;;;;5090794;28;20031;-90
2022/09/11 00:08:17;;;;;;;6.65;3.60;;;16.90;99.90;;;;;;5090049;28;20054;-90
2022/09/11 00:10:44;;;;;;;8.13;3.90;;;17.60;99.90;;;;;;5089284;28;20035;-90
2022/09/11 00:13:15;;;;;;;6.72;3.50;;;16.80;99.90;;;;;;5092660;28;20073;-92
2022/09/11 00:15:44;;;;;;;12.13;4.22;;;16.80;99.90;;;;;;5095238;28;20028;-90
2022/09/11 00:18:16;;;;;;;;;;;17.50;99.90;;;;;;5095463;28;20390;-90
2022/09/11 00:20:51;;;;;;;8.35;3.85;;;16.70;99.90;;;;;;5093144;28;19948;-90
2022/09/11 00:23:18;;;;;;;9.13;3.55;;;16.70;99.90;;;;;;5087616;28;21361;-90
2022/09/11 00:25:45;;;;;;;8.48;3.40;;;16.70;99.90;;;;;;5089931;28;20032;-90
2022/09/11 00:28:16;;;;;;;9.57;3.90;;;16.70;99.90;;;;;;5089779;28;20024;-91
2022/09/11 00:30:46;;;;;;;11.38;4.00;;;16.70;99.90;;;;;;5089732;28;20036;-91
2022/09/11 00:33:13;;;;;;;9.60;3.97;;;16.80;99.90;;;;;;5088557;28;20138;-91
2022/09/11 00:35:40;;;;;;;9.75;4.05;;;16.70;99.90;;;;;;5088617;28;20024;-90
2022/09/11 00:38:10;;;;;;;7.90;3.60;;;16.70;99.90;;;;;;5092836;28;20024;-90
2022/09/11 00:40:46;;;;;;;7.38;3.35;;;16.80;99.90;;;;;;5093548;28;20043;-90
2022/09/11 00:43:16;;;;;;;7.43;3.28;;;16.80;99.90;;;;;;5092421;28;20089;-90
2022/09/11 00:45:45;;;;;;;7.47;3.22;;;16.80;99.90;;;;;;5092507;28;20495;-90
2022/09/11 00:48:15;;;;;;;8.70;3.50;;;16.80;99.90;;;;;;5092319;28;20052;-90
2022/09/11 00:50:42;;;;;;;7.43;3.58;;;16.80;99.90;;;;;;5092453;28;20103;-90
2022/09/11 00:53:10;;;;;;;10.88;3.45;;;16.80;99.90;;;;;;5092507;28;20030;-90
2022/09/11 00:55:39;;;;;;;6.03;3.35;;;16.80;99.90;;;;;;5093472;28;20383;-91
2022/09/11 00:58:09;;;;;;;12.88;3.30;;;16.80;99.90;;;;;;5092305;28;20056;-90
2022/09/11 01:00:38;;;;;;;10.32;3.92;;;;;;;;;;5093643;28;20036;-90
2022/09/11 01:03:04;;;;;;;8.30;3.60;;;16.70;99.90;;;;;;5093532;28;20032;-90
2022/09/11 01:05:33;;;;;;;7.20;3.33;;;;;;;;;;5092157;28;20020;-90
2022/09/11 01:08:02;;;;;;;7.97;3.22;;;;;;;;;;5092100;28;20024;-91
2022/09/11 01:11:02;;;;;;;5.70;3.50;;;16.80;99.90;;;;;;5093287;28;20020;-91
2022/09/11 01:13:40;;;;;;;9.07;3.53;;;16.70;99.90;;;;;;5069256;28;20438;-91
2022/09/11 01:16:31;;;;;;;9.80;3.80;;;16.70;99.90;;;;;;5091918;28;20111;-91
2022/09/11 01:19:30;;;;;;;13.98;4.18;;;16.80;99.90;;;;;;5093291;28;20110;-89
2022/09/11 01:22:02;;;;;;;10.23;4.20;;;16.80;99.90;;;;;;5092221;28;20042;-88
2022/09/11 01:24:52;;;;;;;10.60;4.30;;;16.80;99.90;;;;;;5090419;28;20032;-89
2022/09/11 01:27:41;;;;;;;9.98;4.10;;;16.70;99.90;;;;;;5091610;28;20176;-91
2022/09/11 01:30:17;;;;;;;11.63;4.53;;;16.70;99.90;;;;;;5092870;28;20012;-91
2022/09/11 01:33:07;;;;;;;7.00;3.70;;;16.70;99.90;;;;;;5092818;28;20020;-90
2022/09/11 01:35:45;;;;;;;8.70;4.35;;;16.70;99.90;;;;;;5093079;28;20020;-90
2022/09/11 01:38:24;;;;;;;11.68;4.30;;;16.70;99.90;;;;;;5091548;28;20024;-91
2022/09/11 01:40:57;;;;;;;7.30;3.90;;;15.40;99.90;;;;;;5092711;28;20067;-90
2022/09/11 01:43:26;;;;;;;10.27;4.00;;;17.70;99.90;;;;;;5093422;28;20020;-90
2022/09/11 01:45:52;;;;;;;;;;;16.70;99.90;;;;;;5091774;28;20020;-91
2022/09/11 01:48:28;;;;;;;9.80;3.88;;;16.70;99.90;;;;;;5091345;28;20277;-91
2022/09/11 01:50:56;;;;;;;10.05;4.20;;;16.60;99.90;;;;;;5092107;28;20031;-91
2022/09/11 01:53:27;;;;;;;8.15;3.60;;;16.20;99.90;;;;;;5090562;28;20080;-91
2022/09/11 01:56:02;;;;;;;8.30;4.07;;;16.60;99.90;;;;;;5090829;28;20519;-90
2022/09/11 01:58:29;;;;;;;11.70;5.20;;;16.40;99.90;;;;;;5092059;28;20031;-91
2022/09/11 02:01:05;;;;;;;7.75;3.60;;;16.50;99.90;;;;;;5092031;28;20070;-89
2022/09/11 02:03:38;;;;;;;7.70;4.13;;;16.60;99.90;;;;;;5091038;28;20040;-91
2022/09/11 02:06:14;;;;;;;11.57;4.18;;;16.60;99.90;;;;;;5092270;28;20027;-90
2022/09/11 02:08:40;;;;;;;9.35;4.03;;;;;;;;;;5091059;28;20032;-91
2022/09/11 02:11:09;;;;;;;9.50;4.00;;;16.60;99.90;;;;;;5092140;28;20141;-90
2022/09/11 02:14:02;;;;;;;9.27;4.05;;;16.50;99.90;;;;;;5091989;28;20081;-91
2022/09/11 02:16:49;;;;;;;7.70;4.32;;;16.50;99.90;;;;;;5092781;28;20556;-91
2022/09/11 02:19:19;;;;;;;8.15;3.80;;;16.60;99.90;;;;;;5091947;28;20027;-91
2022/09/11 02:21:46;;;;;;;12.68;3.85;;;16.50;99.90;;;;;;5090602;28;20039;-91
2022/09/11 02:24:14;;;;;;;7.72;4.10;;;16.50;99.90;;;;;;5091907;28;20035;-90
2022/09/11 02:26:44;;;;;;;12.55;4.05;;;16.40;99.90;;;;;;5090745;28;20028;-90
2022/09/11 02:29:11;;;;;;;12.10;4.03;;;16.40;99.90;;;;;;5090509;28;20472;-88
2022/09/11 02:31:38;;;;;;;6.72;3.90;;;16.30;99.90;;;;;;5090453;28;20024;-91
2022/09/11 02:34:05;;;;;;;8.70;3.65;;;;;;;;;;5090945;28;20030;-92
2022/09/11 02:36:30;;;;;;;6.60;3.47;;;16.30;99.90;;;;;;5092372;28;20024;-89
2022/09/11 02:39:16;;;;;;;9.45;3.70;;;16.30;99.90;;;;;;5091237;28;20066;-91
2022/09/11 02:42:16;;;;;;;7.72;3.58;;;16.20;99.90;;;;;;5080728;28;20093;-91
2022/09/11 02:45:11;;;;;;;11.68;4.03;;;16.20;99.90;;;;;;5090272;28;20043;-91
2022/09/11 02:48:01;;;;;;;13.68;3.50;;;16.20;99.90;;;;;;5050954;28;20388;-93
2022/09/11 02:50:33;;;;;;;8.82;3.70;;;16.30;99.90;;;;;;5072179;28;20025;-91
2022/09/11 02:53:34;;;;;;;7.72;3.70;;;16.00;99.90;;;;;;5078792;28;20024;-90
2022/09/11 02:56:08;;;;;;;11.68;3.30;;;16.10;99.90;;;;;;5059920;28;20054;-92
2022/09/11 02:58:59;;;;;;;6.65;4.05;;;15.90;99.90;;;;;;5099357;28;20096;-90
2022/09/11 03:02:03;;;;;;;9.48;4.05;;;16.00;99.90;;;;;;5094543;28;20028;-93
2022/09/11 03:04:30;;;;;;;6.13;3.90;;;;;;;;;;5090286;28;20024;-91
2022/09/11 03:06:58;;;;;;;11.27;3.80;;;16.00;99.90;;;;;;5090541;28;20380;-92
2022/09/11 03:09:24;;;;;;;7.03;3.25;;;;;;;;;;5089493;28;20035;-91
2022/09/11 03:12:05;;;;;;;9.40;3.88;;;16.00;99.90;;;;;;5089182;28;20392;-92
2022/09/11 03:14:31;;;;;;;8.20;4.05;;;;;;;;;;5089260;28;20035;-91
2022/09/11 03:17:08;;;;;;;7.20;3.42;;;15.90;99.90;;;;;;5090357;28;20062;-92
2022/09/11 03:20:27;;;;;;;;;;;;;;;;;;;;;
2022/09/11 03:29:51;;;;;;;;;;;;;;;;;;;;;
2022/09/11 03:32:45;;;;;;;;;;;;;;;;;;;;;
2022/09/11 03:49:31;;;;;;;;;;;;;;;;;;;;;
2022/09/11 03:59:15;;;;;;;;;;;;;;;;;;;;;
2022/09/11 04:02:20;;;;;;;8.75;4.07;;;15.70;99.90;;;;;;4869781;29;20041;-93
2022/09/11 04:04:57;;;;;;;10.77;4.20;;;15.70;99.90;;;;;;4842266;29;20094;-90
2022/09/11 04:07:24;;;;;;;6.75;3.70;;;;;;;;;;4959486;28;20039;-92
2022/09/11 04:09:50;;;;;;;8.02;4.03;;;;;;;;;;5027954;28;20036;-91
2022/09/11 04:12:28;;;;;;;6.82;3.97;;;15.70;99.90;;;;;;5088604;28;20024;-92
2022/09/11 04:15:16;;;;;;;6.13;3.60;;;15.70;99.90;;;;;;5090694;28;20043;-91
2022/09/11 04:20:54;;;;;;;;;;;;;;;;;;;;;
2022/09/11 04:23:55;;;;;;;;;;;;;;;;;;;;;
2022/09/11 04:27:00;;;;;;;;;;;;;;;;;;;;;
2022/09/11 04:29:37;;;;;;;9.25;4.00;;;15.60;99.90;;;;;;5090545;28;20046;-93
2022/09/11 04:32:20;;;;;;;;;;;;;;;;;;;;;
2022/09/11 04:34:49;;;;;;;11.68;4.38;;;;;;;;;;5090845;28;20020;-91
2022/09/11 04:37:53;;;;;;;9.20;3.92;;;15.60;99.90;;;;;;5089340;28;20104;-92
2022/09/11 04:44:06;;;;;;;5.95;3.72;;;15.60;99.90;;;;;;4949878;29;20031;-91
2022/09/11 04:47:01;;;;;;;;;;;;;;;;;;;;;
2022/09/11 04:50:08;;;;;;;;;;;;;;;;;;;;;
2022/09/11 04:52:57;;;;;;;;;;;;;;;;;;;;;
2022/09/11 04:59:18;;;;;;;;;;;;;;;;;;;;;
2022/09/11 05:05:21;;;;;;;5.40;4.20;;;15.50;99.90;;;;;;4988285;28;20026;-91
2022/09/11 05:08:42;;;;;;;;;;;;;;;;;;;;;
2022/09/11 05:11:39;;;;;;;7.97;4.35;;;15.40;99.90;;;;;;5061134;28;20044;-93
2022/09/11 05:14:34;;;;;;;6.30;4.30;;;15.40;99.90;;;;;;5068281;28;20878;-92
2022/09/11 05:17:26;;;;;;;7.75;4.15;;;15.30;99.90;;;;;;5079510;28;20035;-92
2022/09/11 05:19:52;;;;;;;11.30;4.07;;;;;;;;;;5089207;28;20024;-92
2022/09/11 05:22:18;;;;;;;6.10;4.10;;;;;;;;;;5088563;28;20036;-90
2022/09/11 05:24:44;;;;;;;11.45;4.35;;;;;;;;;;5092460;28;20027;-91
2022/09/11 05:27:10;;;;;;;7.30;3.85;;;;;;;;;;5092354;28;20024;-92
2022/09/11 05:29:37;;;;;;;11.68;4.95;;;;;;;;;;5091462;28;20035;-91
2022/09/11 05:32:04;;;;;;;8.93;4.68;;;15.40;99.90;;;;;;5097755;28;20518;-90
2022/09/11 05:34:30;;;;;;;9.73;4.35;;;;;;;;;;5099527;28;20031;-91
2022/09/11 05:37:04;;;;;;;8.77;4.50;;;;;;;;;;5099736;28;20036;-91
2022/09/11 05:39:33;;;;;;;9.75;4.13;;;15.40;99.90;;;;;;5093925;28;20253;-91
2022/09/11 05:41:59;;;;;;;13.20;3.97;;;;;;;;;;5092092;28;20040;-92
2022/09/11 05:44:25;;;;;;;8.15;4.80;;;;;;;;;;5093433;28;20061;-91
2022/09/11 05:46:51;;;;;;;8.27;3.85;;;;;;;;;;5092025;28;20505;-91
2022/09/11 05:49:18;;;;;;;10.10;4.75;;;;;;;;;;5092042;28;20024;-91
2022/09/11 05:51:44;;;;;;;10.90;4.88;;;;;;;;;;5091950;28;20389;-93
2022/09/11 05:54:10;;;;;;;8.07;4.78;;;;;;;;;;5092544;28;20028;-92
2022/09/11 05:56:40;;;;;;;10.15;4.65;;;15.50;99.90;;;;;;5092576;28;20028;-92
2022/09/11 05:59:13;;;;;;;8.45;4.60;;;15.50;99.90;;;;;;5085782;28;20458;-91
2022/09/11 06:01:39;;;;;;;9.65;4.07;;;;;;;;;;5073233;28;20020;-91
2022/09/11 06:04:11;;;;;;;5.75;4.25;;;15.60;99.90;;;;;;5071509;28;20029;-91
2022/09/11 06:09:37;;;;;;;7.30;4.38;;;15.50;99.90;;;;;;5088268;28;20032;-91
2022/09/11 06:12:05;;;;;;;7.55;4.13;;;15.50;99.90;;;;;;5093047;28;20504;-93
2022/09/11 06:14:31;;;;;;;7.43;4.20;;;;;;;;;;5092917;28;20029;-92
2022/09/11 06:17:14;;;;;;;7.47;4.43;;;15.60;99.90;;;;;;5094255;28;20024;-90
2022/09/11 06:19:40;;;;;;;9.40;4.20;;;;;;;;;;5096136;28;20472;-94
2022/09/11 06:22:13;;;;;;;8.98;4.05;;;;;;;;;;5092598;28;20032;-93
2022/09/11 06:25:04;;;;;;;;;;;;;;;;;;;;;
2022/09/11 06:27:31;;;;;;;7.78;4.15;;;;;;;;;;5093417;28;20034;-92
2022/09/11 06:29:59;;;;;;;10.32;4.47;;;15.80;99.90;;;;;;5092356;28;20026;-93
2022/09/11 06:32:35;;;;;;;11.45;4.30;;;16.00;99.90;;;;;;5093639;28;20081;-92
2022/09/11 06:35:09;;;;;;;8.75;4.93;;;16.00;99.90;;;;;;5096361;28;20096;-94
2022/09/11 06:37:45;;;;;;;;;;;;;;;;;;;;;
2022/09/11 06:40:34;;;;;;;7.90;4.38;;;16.00;99.90;;;;;;5073430;28;20044;-93
2022/09/11 06:43:02;;;;;;;11.68;4.88;;;16.10;99.90;;;;;;5072058;28;20036;-93
2022/09/11 06:46:01;;;;;;;;;;;;;;;;;;;;;
2022/09/11 06:59:32;;;;;;;;;;;;;;;;;;;;;
2022/09/11 07:02:19;;;;;;;10.70;4.95;;;;;;;;;;4840879;29;20090;-92
2022/09/11 07:04:57;;;;;;;10.32;5.47;;;16.40;99.90;;;;;;4901104;29;20061;-90
2022/09/11 07:07:47;;;;;;;14.75;5.65;;;16.50;99.90;;;;;;4998425;28;20026;-91
2022/09/11 07:10:13;;;;;;;12.95;5.63;;;16.40;99.90;;;;;;5028855;28;20057;-90
2022/09/11 07:12:40;;;;;;;8.93;5.18;;;;;;;;;;5012125;28;20049;-93
2022/09/11 07:15:07;;;;;;;9.50;5.05;;;;;;;;;;5012958;28;20087;-91
2022/09/11 07:28:40;;;;;;;11.75;5.13;;;16.70;99.90;;;;;;4869091;29;20055;-90
2022/09/11 07:31:13;;;;;;;;;;;16.70;99.90;;;;;;4858513;29;20440;-93
2022/09/11 07:37:04;;;;;;;10.50;4.90;;;16.90;99.90;;;;;;4933805;29;20126;-90
2022/09/11 07:39:30;;;;;;;10.35;4.90;;;;;;;;;;4994896;28;20029;-91
2022/09/11 07:42:14;;;;;;;8.40;4.40;;;17.00;99.90;;;;;;5002265;28;20084;-91
2022/09/11 07:44:49;;;;;;;9.93;4.82;;;17.70;99.90;;;;;;5019068;28;20041;-93
2022/09/11 07:47:18;;;;;;;6.50;4.60;;;;;;;;;;5018731;28;20105;-90
2022/09/11 07:49:45;;;;;;;9.82;5.15;;;;;;;;;;5017441;28;20076;-90
2022/09/11 07:52:11;;;;;;;11.00;4.80;;;;;;;;;;5066710;28;20066;-92
2022/09/11 07:54:37;;;;;;;8.70;4.68;;;;;;;;;;5088094;28;20600;-91
2022/09/11 07:57:03;;;;;;;7.05;4.50;;;17.30;99.90;;;;;;5087932;28;20042;-88
2022/09/11 07:59:31;;;;;;;6.53;4.30;;;17.40;99.90;;;;;;5088898;28;20016;-90
2022/09/11 08:01:58;;;;;;;11.63;4.47;;;;;;;;;;5087986;28;20492;-89
2022/09/11 08:04:24;;;;;;;10.27;4.53;;;;;;;;;;5087931;28;20016;-91
2022/09/11 08:06:50;;;;;;;9.35;4.53;;;17.50;99.90;;;;;;5087035;28;20039;-91
2022/09/11 08:09:18;;;;;;;11.88;4.68;;;17.60;99.90;;;;;;5088004;28;20560;-87
2022/09/11 08:11:47;;;;;;;6.93;4.03;;;17.60;99.90;;;;;;5088187;28;20403;-88
2022/09/11 08:14:16;;;;;;;7.43;3.90;;;17.70;99.90;;;;;;5090878;28;20020;-88
2022/09/11 08:16:42;;;;;;;9.57;4.20;;;17.80;99.90;;;;;;5092672;28;20399;-89
2022/09/11 08:19:13;;;;;;;7.68;3.88;;;17.90;99.90;;;;;;5091470;28;20446;-92
2022/09/11 08:21:39;;;;;;;7.00;4.22;;;;;;;;;;5089520;28;20052;-91
2022/09/11 08:24:06;;;;;;;10.38;3.90;;;18.00;99.90;;;;;;5079171;28;20017;-91
2022/09/11 08:26:35;;;;;;;12.25;4.63;;;18.20;99.90;;;;;;5068556;28;20021;-87
2022/09/11 08:29:01;;;;;;;8.88;3.80;;;18.20;99.90;;;;;;5084729;28;20028;-88
2022/09/11 08:31:27;;;;;;;10.48;3.75;;;;;;;;;;5081582;28;20024;-89
2022/09/11 08:33:54;;;;;;;7.80;3.65;;;18.40;99.90;;;;;;5087010;28;20031;-88
2022/09/11 08:36:20;;;;;;;9.63;3.67;;;;;;;;;;5081333;28;20488;-89
2022/09/11 08:38:47;;;;;;;6.05;3.70;;;18.50;99.90;;;;;;5081840;28;20028;-88
2022/09/11 08:41:41;;;;;;;7.97;3.45;;;18.80;99.90;;;;;;5071492;28;20033;-89
2022/09/11 08:44:45;;;;;;;7.88;3.20;;;18.80;99.90;;;;;;5067673;28;20059;-91
2022/09/11 08:47:19;;;;;;;7.40;2.97;;;18.80;99.90;;;;;;5080498;28;20073;-88
2022/09/11 08:50:01;;;;;;;7.50;2.78;;;18.80;99.90;;;;;;5088706;28;20059;-91
2022/09/11 08:52:27;;;;;;;4.05;2.50;;;;;;;;;;5070294;28;20067;-93
2022/09/11 08:54:56;;;;;;;5.15;2.80;;;19.10;99.90;;;;;;5068175;28;20029;-92
2022/09/11 08:57:39;;;;;;;10.48;2.70;;;19.30;99.90;;;;;;5071592;28;20554;-93
2022/09/11 09:00:26;;;;;;;11.13;2.80;;;19.30;99.90;;;;;;5092455;28;20046;-94
2022/09/11 09:03:05;;;;;;;6.70;2.53;;;19.40;99.90;;;;;;5092158;28;20150;-93
2022/09/11 09:05:59;;;;;;;6.75;2.50;;;19.50;99.90;;;;;;5092124;28;20028;-93
2022/09/11 09:08:40;;;;;;;8.55;2.40;;;19.70;99.90;;;;;;5093525;28;20020;-94
2022/09/11 09:11:30;;;;;;;4.68;2.33;;;20.50;99.90;;;;;;5093715;28;20101;-93
2022/09/11 09:14:29;;;;;;;7.18;2.15;;;20.00;99.90;;;;;;5092031;28;20031;-92
2022/09/11 09:17:11;;;;;;;4.30;2.03;;;19.90;99.90;;;;;;5034875;28;20484;-88
2022/09/11 09:19:37;;;;;;;6.05;2.40;;;;;;;;;;5072989;28;20078;-88
2022/09/11 09:22:30;;;;;;;6.72;2.10;;;19.90;99.90;;;;;;5081419;28;20036;-93
2022/09/11 09:25:04;;;;;;;4.85;1.95;;;20.00;99.90;;;;;;5098673;28;20028;-96
2022/09/11 09:27:48;;;;;;;5.28;2.00;;;20.00;99.90;;;;;;5093822;28;20032;-92
2022/09/11 09:30:23;;;;;;;4.15;1.90;;;18.50;99.90;;;;;;5073009;28;20036;-91
2022/09/11 09:33:34;;;;;;;8.88;2.10;;;20.30;99.90;;;;;;5083610;28;20097;-93
2022/09/11 09:36:16;;;;;;;7.22;2.00;;;20.50;99.90;;;;;;5067504;28;20036;-93
2022/09/11 09:38:43;;;;;;;6.38;2.10;;;;;;;;;;5089815;28;20032;-91
2022/09/11 09:41:09;;;;;;;7.00;1.95;;;;;;;;;;5086911;28;20032;-91
2022/09/11 09:43:47;;;;;;;6.03;2.03;;;20.50;99.90;;;;;;5077514;28;20076;-92
2022/09/11 09:46:30;;;;;;;2.60;1.60;;;20.50;99.90;;;;;;5089077;28;20502;-89
2022/09/11 09:48:56;;;;;;;5.95;1.52;;;;;;;;;;5096103;28;20039;-89
2022/09/11 09:51:22;;;;;;;7.68;1.70;;;20.80;99.90;;;;;;5097249;28;20115;-87
2022/09/11 09:53:57;;;;;;;6.40;1.92;;;20.80;99.90;;;;;;5094337;28;20024;-95
2022/09/11 09:56:24;;;;;;;5.45;1.70;;;20.80;99.90;;;;;;5089226;28;20118;-88
2022/09/11 09:59:01;;;;;;;6.28;2.03;;;20.80;99.90;;;;;;5091638;28;20020;-92
2022/09/11 10:01:49;;;;;;;6.13;1.88;;;21.20;99.90;;;;;;5090953;28;20020;-89
2022/09/11 10:04:15;;;;;;;4.45;1.50;;;;;;;;;;5090497;28;20023;-89
2022/09/11 10:06:44;;;;;;;5.32;1.63;;;21.00;99.90;;;;;;5091322;28;20057;-89
2022/09/11 10:09:28;;;;;;;4.20;1.75;;;20.90;99.90;;;;;;5093029;28;20039;-86
2022/09/11 10:12:01;;;;;;;4.75;1.75;;;21.10;99.90;;;;;;5070084;28;20037;-88
2022/09/11 10:14:33;;;;;;;4.55;1.52;;;21.20;99.90;;;;;;5092532;28;20060;-93
2022/09/11 10:17:03;;;;;;;5.00;1.77;;;21.20;99.90;;;;;;5093180;28;20499;-86
2022/09/11 10:19:41;;;;;;;5.32;1.90;;;21.20;99.90;;;;;;5089675;28;20023;-93
2022/09/11 10:22:25;;;;;;;6.30;1.88;;;21.80;99.90;;;;;;5090292;28;20076;-89
2022/09/11 10:24:59;;;;;;;3.13;1.58;;;21.50;99.90;;;;;;5084336;28;20024;-88
2022/09/11 10:30:54;;;;;;;3.75;1.50;;;21.40;99.90;;;;;;5084480;28;20096;-94
2022/09/11 10:33:40;;;;;;;3.50;1.83;;;21.40;99.90;;;;;;5094084;28;20028;-90
2022/09/11 10:36:08;;;;;;;5.78;2.30;;;20.70;99.90;;;;;;5098704;28;20059;-93
2022/09/11 10:38:44;;;;;;;;;;;21.70;99.90;;;;;;5097300;28;20027;-95
2022/09/11 10:41:13;;;;;;;4.50;1.85;;;21.80;99.90;;;;;;5098703;28;19916;-91
2022/09/11 10:44:17;;;;;;;4.95;1.92;;;21.80;99.90;;;;;;5102693;28;20085;-93
2022/09/11 10:47:20;;;;;;;6.90;2.20;;;21.70;99.90;;;;;;5024059;28;20498;-95
2022/09/11 10:49:47;;;;;;;4.60;1.63;;;;;;;;;;5016977;28;20045;-95
2022/09/11 10:52:22;;;;;;;3.00;1.60;;;;;;;;;;5073302;28;20068;-89
2022/09/11 10:55:20;;;;;;;5.55;1.70;;;22.00;99.90;;;;;;5099340;28;20071;-92
2022/09/11 10:57:51;;;;;;;6.07;1.77;;;22.50;99.90;;;;;;5053681;28;20052;-92
2022/09/11 11:03:57;;;;;;;;;;;;;;;;;;;;;
2022/09/11 11:07:23;;;;;;;;;;;;;;;;;;;;;
2022/09/11 11:10:26;;;;;;;;;;;;;;;;;;;;;
2022/09/11 11:13:56;;;;;;;;;;;;;;;;;;;;;
2022/09/11 11:16:44;;;;;;;3.45;1.60;;;20.80;99.90;;;;;;4934736;29;20064;-93
2022/09/11 11:19:21;;;;;;;;;;;22.30;99.90;;;;;;4922810;29;20481;-94
2022/09/11 11:22:33;;;;;;;3.10;1.20;;;23.00;99.90;;;;;;4957927;28;19922;-90
2022/09/11 11:25:24;;;;;;;4.55;1.40;;;22.10;99.90;;;;;;5014881;28;20052;-94
2022/09/11 11:28:22;;;;;;;3.47;1.63;;;22.00;99.90;;;;;;5088640;28;20032;-92
2022/09/11 11:30:48;;;;;;;4.35;1.40;;;;;;;;;;5099839;28;20024;-88
2022/09/11 11:34:18;;;;;;;3.70;1.40;;;22.30;99.90;;;;;;5101993;28;20032;-96
2022/09/11 11:36:51;;;;;;;3.78;1.50;;;22.10;99.90;;;;;;5098753;28;20032;-92
2022/09/11 11:39:42;;;;;;;6.10;1.35;;;22.10;99.90;;;;;;5094752;28;20032;-96
2022/09/11 11:42:24;;;;;;;3.05;1.50;;;22.20;99.90;;;;;;5101471;28;20028;-95
2022/09/11 11:45:16;;;;;;;3.40;1.45;;;22.30;99.90;;;;;;5085858;28;20016;-90
2022/09/11 11:47:44;;;;;;;2.70;1.35;;;22.50;99.90;;;;;;5083946;28;20055;-88
2022/09/11 11:50:47;;;;;;;2.73;1.33;;;22.50;99.90;;;;;;5092788;28;20020;-90
2022/09/11 11:53:40;;;;;;;2.10;1.15;;;22.90;99.90;;;;;;5094277;28;20048;-91
2022/09/11 11:56:36;;;;;;;5.00;1.77;;;21.20;99.90;;;;;;5097139;28;20099;-93
2022/09/11 11:59:10;;;;;;;2.25;1.30;;;22.50;99.90;;;;;;5097838;28;20028;-92
2022/09/11 12:11:54;;;;;;;2.55;1.20;;;22.80;99.90;;;;;;4908760;29;20055;-88
2022/09/11 12:14:31;;;;;;;3.30;1.20;;;21.90;99.90;;;;;;5011343;28;20034;-90
2022/09/11 12:16:57;;;;;;;3.45;1.30;;;;;;;;;;5094080;28;20022;-90
2022/09/11 12:19:26;;;;;;;2.50;1.60;;;22.80;99.90;;;;;;5108502;28;20019;-94
2022/09/11 12:21:52;;;;;;;3.35;1.40;;;;;;;;;;5090724;28;20028;-96
2022/09/11 12:24:51;;;;;;;8.38;1.35;;;22.80;99.90;;;;;;5087012;28;20032;-95
2022/09/11 12:31:14;;;;;;;;;;;;;;;;;;;;;
2022/09/11 12:34:00;;;;;;;2.20;1.27;;;22.90;99.90;;;;;;5088570;28;20039;-93
2022/09/11 12:36:36;;;;;;;3.10;1.75;;;22.80;99.90;;;;;;5086125;28;20019;-94
2022/09/11 12:39:19;;;;;;;1.95;1.13;;;22.80;99.90;;;;;;5091956;28;20050;-91
2022/09/11 12:41:45;;;;;;;2.45;1.30;;;;;;;;;;5093496;28;20155;-96
2022/09/11 12:45:00;;;;;;;;;;;;;;;;;;;;;
2022/09/11 12:47:37;;;;;;;;;;;;;;;;;;;;;
2022/09/11 12:50:14;;;;;;;18.23;8.20;;;24.00;99.90;;;;;;5036776;28;20040;-96
2022/09/11 12:52:56;;;;;;;;;;;;;;;;;;;;;
2022/09/11 12:55:42;;;;;;;2.20;0.93;;;23.10;99.90;;;;;;5105506;28;20040;-94
2022/09/11 12:59:04;;;;;;;;;;;;;;;;;;;;;
2022/09/11 13:04:29;;;;;;;2.88;1.10;;;23.10;99.90;;;;;;5082074;28;20058;-92
2022/09/11 13:07:31;;;;;;;5.13;1.83;;;23.40;99.90;;;;;;5091917;28;20016;-93
2022/09/11 13:10:29;;;;;;;12.52;3.58;;;23.80;99.90;;;;;;5088354;28;20138;-92
2022/09/11 13:13:46;;;;;;;;;;;;;;;;;;;;;
2022/09/11 13:16:29;;;;;;;1.92;1.50;;;23.40;99.90;;;;;;5082130;28;20031;-94
2022/09/11 13:19:13;;;;;;;2.28;1.27;;;23.40;99.90;;;;;;5102249;28;20016;-94
2022/09/11 13:21:43;;;;;;;7.43;3.60;;;23.20;99.90;;;;;;5106529;28;20069;-95
2022/09/11 13:27:27;;;;;;;5.38;1.52;;;23.20;99.90;;;;;;5087240;28;20448;-89
2022/09/11 13:29:58;;;;;;;4.35;2.88;;;23.10;99.90;;;;;;5092576;28;20028;-90
2022/09/11 13:32:24;;;;;;;20.88;9.07;;;;;;;;;;5093307;28;20026;-89
2022/09/11 13:35:00;;;;;;;9.18;4.32;;;23.20;99.90;;;;;;5086438;28;20082;-91
2022/09/11 13:37:26;;;;;;;5.07;2.22;;;;;;;;;;5089770;28;20020;-89
2022/09/11 13:39:53;;;;;;;1.20;1.02;;;;;;;;;;5096314;28;20082;-91
2022/09/11 13:42:22;;;;;;;2.55;1.08;;;23.40;99.90;;;;;;5096705;28;20272;-91
2022/09/11 13:45:00;;;;;;;2.22;1.05;;;23.40;99.90;;;;;;5103283;28;20028;-90
2022/09/11 13:47:30;;;;;;;2.85;0.90;;;23.40;99.90;;;;;;5089826;28;20380;-93
2022/09/11 13:50:02;;;;;;;4.50;1.05;;;23.40;99.90;;;;;;5073551;28;20129;-93
2022/09/11 13:52:31;;;;;;;1.63;0.90;;;23.60;99.90;;;;;;5093130;28;20488;-89
2022/09/11 13:55:02;;;;;;;2.03;0.98;;;23.50;99.90;;;;;;5091678;28;20031;-90
2022/09/11 13:57:30;;;;;;;4.45;1.20;;;23.70;99.90;;;;;;5090841;28;20028;-88
2022/09/11 13:59:59;;;;;;;2.28;1.17;;;23.60;99.90;;;;;;5093726;28;20028;-93
2022/09/11 14:02:34;;;;;;;2.83;0.95;;;23.60;99.90;;;;;;5091629;28;20032;-93
2022/09/11 14:05:14;;;;;;;2.03;0.88;;;23.60;99.90;;;;;;5096034;28;20509;-92
2022/09/11 14:07:59;;;;;;;3.35;1.00;;;23.60;99.90;;;;;;5072453;28;20035;-93
2022/09/11 14:10:32;;;;;;;1.77;0.98;;;23.60;99.90;;;;;;5087367;28;20032;-93
2022/09/11 14:13:11;;;;;;;4.80;0.90;;;23.50;99.90;;;;;;5092829;28;20445;-89
2022/09/11 14:15:58;;;;;;;2.15;1.00;;;23.80;99.90;;;;;;5090733;28;20020;-94
2022/09/11 14:18:59;;;;;;;1.85;0.70;;;23.90;99.90;;;;;;5098756;28;20031;-92
2022/09/11 14:21:34;;;;;;;1.60;0.90;;;23.80;99.90;;;;;;5059561;28;20476;-92
2022/09/11 14:24:06;;;;;;;1.95;1.00;;;23.90;99.90;;;;;;5092553;28;20085;-92
2022/09/11 14:26:33;;;;;;;5.35;1.00;;;23.70;99.90;;;;;;5092443;28;20384;-88
2022/09/11 14:29:01;;;;;;;;;;;23.90;99.90;;;;;;5093211;28;20103;-95
2022/09/11 14:31:38;;;;;;;3.63;1.00;;;23.70;99.90;;;;;;5091515;28;19904;-92
2022/09/11 14:34:15;;;;;;;1.90;0.82;;;23.70;99.90;;;;;;5092006;28;20111;-93
2022/09/11 14:36:45;;;;;;;1.88;0.90;;;23.90;99.90;;;;;;5089530;28;20480;-93
2022/09/11 14:39:42;;;;;;;3.55;1.02;;;23.90;99.90;;;;;;5091913;28;20085;-93
2022/09/11 14:42:16;;;;;;;2.70;0.88;;;24.30;99.90;;;;;;5091770;28;20103;-87
2022/09/11 14:44:42;;;;;;;3.45;1.00;;;;;;;;;;5091949;28;20035;-93
2022/09/11 14:47:16;;;;;;;2.75;1.20;;;24.00;99.90;;;;;;5091553;28;20024;-92
2022/09/11 14:49:42;;;;;;;3.95;1.02;;;;;;;;;;5091710;28;20020;-94
2022/09/11 14:52:28;;;;;;;2.13;0.90;;;24.10;99.90;;;;;;5090316;28;20118;-92
2022/09/11 14:54:55;;;;;;;1.75;0.93;;;;;;;;;;5090050;28;20028;-93
2022/09/11 14:57:29;;;;;;;1.38;0.80;;;24.10;99.90;;;;;;5090941;28;20353;-92
2022/09/11 14:59:55;;;;;;;1.95;1.10;;;;;;;;;;5090167;28;20430;-93
2022/09/11 15:02:23;;;;;;;2.05;1.00;;;24.00;99.90;;;;;;5091039;28;20032;-87
2022/09/11 15:04:51;;;;;;;3.80;0.95;;;24.10;99.90;;;;;;5091152;28;20027;-91
2022/09/11 15:07:17;;;;;;;1.70;1.10;;;24.00;99.90;;;;;;5090212;28;20063;-89
2022/09/11 15:09:44;;;;;;;1.63;0.93;;;;;;;;;;5088635;28;20024;-90
2022/09/11 15:12:11;;;;;;;1.73;1.00;;;24.10;99.90;;;;;;5091408;28;20035;-94
2022/09/11 15:14:38;;;;;;;3.15;0.80;;;;;;;;;;5091159;28;20028;-87
2022/09/11 15:17:06;;;;;;;1.73;0.68;;;24.10;99.90;;;;;;5091152;28;20054;-89
2022/09/11 15:19:57;;;;;;;2.58;1.00;;;25.30;99.90;;;;;;5079674;28;20027;-93
2022/09/11 15:22:23;;;;;;;2.65;0.73;;;;;;;;;;5075120;28;20052;-94
2022/09/11 15:24:49;;;;;;;3.13;0.80;;;;;;;;;;5089681;28;20048;-89
2022/09/11 15:27:16;;;;;;;2.75;0.90;;;;;;;;;;5089323;28;20077;-89
2022/09/11 15:29:42;;;;;;;2.05;0.85;;;;;;;;;;5088682;28;20032;-94
2022/09/11 15:32:08;;;;;;;3.85;1.08;;;24.10;99.90;;;;;;5090380;28;20482;-90
2022/09/11 15:34:34;;;;;;;2.17;0.98;;;;;;;;;;5090102;28;20027;-93
2022/09/11 15:37:01;;;;;;;3.15;1.23;;;;;;;;;;5090752;28;20060;-89
2022/09/11 15:39:29;;;;;;;1.08;0.70;;;24.30;99.90;;;;;;5089413;28;20032;-92
2022/09/11 15:41:56;;;;;;;1.75;1.00;;;;;;;;;;5087162;28;20417;-94
2022/09/11 15:44:24;;;;;;;3.00;1.00;;;24.30;99.90;;;;;;5089952;28;20084;-94
2022/09/11 15:46:51;;;;;;;3.13;0.88;;;24.40;99.90;;;;;;5073800;28;20032;-92
2022/09/11 15:49:27;;;;;;;1.27;0.88;;;24.30;99.90;;;;;;5070880;28;20056;-90
2022/09/11 15:52:45;;;;;;;;;;;;;;;;;;;;;
